Time;durP1;ratioP1;P1;durP2;ratioP2;P2;SDS_P1;SDS_P2;PMS_P1;PMS_P2;Temp;Humidity;BMP_temperature;BMP_pressure;BME280_temperature;BME280_humidity;BME280_pressure;Samples;Min_cycle;Max_cycle;Signal;HPM_P1;HPM_P2
2023/01/27 00:01:42;;;;;;;;;34.50;30.25;;;;;6.61;59.28;99061.56;5133908;27;8858;-79
2023/01/27 00:04:11;;;;;;;;;34.00;32.25;;;;;6.75;59.29;99055.63;5152058;27;8855;-78
2023/01/27 00:06:40;;;;;;;;;32.20;28.40;;;;;6.75;58.61;99058.22;5116802;27;8915;-78
2023/01/27 00:09:10;;;;;;;;;26.75;26.75;;;;;6.85;58.96;99056.56;5152386;27;8867;-77
2023/01/27 00:14:25;;;;;;;;;30.25;25.75;;;;;6.74;59.17;99054.75;5121249;27;8824;-79
2023/01/27 00:16:54;;;;;;;;;33.20;31.00;;;;;6.70;58.56;99045.22;5151951;27;8823;-79
2023/01/27 00:19:22;;;;;;;;;40.25;33.25;;;;;6.78;58.92;99053.03;5151746;27;9025;-78
2023/01/27 00:24:40;;;;;;;;;29.40;26.20;;;;;6.74;59.28;99040.94;5132246;27;9660;-79
2023/01/27 00:27:09;;;;;;;;;39.50;35.25;;;;;6.95;58.27;99040.19;5151559;27;8831;-77
2023/01/27 00:29:39;;;;;;;;;37.50;28.00;;;;;6.88;59.06;99041.91;5151766;27;8990;-77
2023/01/27 00:34:55;;;;;;;;;30.40;28.40;;;;;6.61;59.07;99034.78;5133362;27;8831;-78
2023/01/27 00:37:24;;;;;;;;;26.60;24.40;;;;;6.63;58.51;99033.06;5151630;27;8839;-78
2023/01/27 00:39:55;;;;;;;;;25.80;24.00;;;;;6.34;59.60;99040.63;5098361;27;8843;-77
2023/01/27 00:42:24;;;;;;;;;28.60;24.80;;;;;6.37;59.44;99040.66;5132990;27;8831;-78
2023/01/27 00:47:40;;;;;;;;;30.00;27.00;;;;;6.87;58.92;99021.16;5132511;27;8827;-80
2023/01/27 00:50:10;;;;;;;;;24.20;20.80;;;;;6.95;58.67;99020.31;5081655;27;9072;-77
2023/01/27 00:52:39;;;;;;;;;30.60;28.40;;;;;7.01;58.23;99022.97;5082435;27;8974;-77
2023/01/27 00:55:10;;;;;;;;;26.20;22.20;;;;;7.05;58.51;99022.97;5115707;27;8880;-79
2023/01/27 00:57:39;;;;;;;;;31.80;26.60;;;;;6.92;57.82;99017.72;5132838;27;8866;-79
2023/01/27 01:00:10;;;;;;;;;29.40;26.40;;;;;6.74;58.46;99015.88;5132500;27;9731;-78
2023/01/27 01:02:39;;;;;;;;;26.20;25.00;;;;;6.75;58.67;99011.59;5115599;27;9023;-80
2023/01/27 01:05:09;;;;;;;;;30.80;27.40;;;;;6.86;58.23;99014.22;5133084;27;8887;-78
2023/01/27 01:07:38;;;;;;;;;28.00;26.60;;;;;6.69;58.34;99004.66;5129210;27;8834;-79
2023/01/27 01:10:10;;;;;;;;;25.60;24.20;;;;;6.82;59.05;99008.16;5130152;27;8862;-77
2023/01/27 01:12:40;;;;;;;;;26.20;22.20;;;;;6.53;59.21;99006.25;5130381;27;8873;-78
2023/01/27 01:15:09;;;;;;;;;34.60;25.80;;;;;6.65;59.37;99010.63;5129066;27;8898;-79
2023/01/27 01:17:38;;;;;;;;;31.00;28.00;;;;;6.52;59.57;99008.81;5111771;27;8886;-77
2023/01/27 01:20:07;;;;;;;;;31.20;29.80;;;;;6.78;58.85;99012.44;5130277;27;8858;-80
2023/01/27 01:22:37;;;;;;;;;24.60;22.20;;;;;6.83;58.77;99010.75;5094560;27;8873;-76
2023/01/27 01:25:08;;;;;;;;;34.20;27.80;;;;;6.88;58.06;98999.53;5093656;27;9004;-78
2023/01/27 01:27:38;;;;;;;;;30.00;25.00;;;;;6.89;58.22;99001.28;5111738;27;8842;-76
2023/01/27 01:30:09;;;;;;;;;33.75;29.50;;;;;6.91;58.35;99003.03;5128653;27;8880;-78
2023/01/27 01:32:38;;;;;;;;;32.60;29.20;;;;;6.89;58.57;98994.38;5111687;27;9643;-78
2023/01/27 01:35:07;;;;;;;;;29.40;25.40;;;;;6.94;57.92;98995.28;5129843;27;8935;-80
2023/01/27 01:37:36;;;;;;;;;28.40;24.80;;;;;6.97;58.48;98990.09;5094147;27;8862;-78
2023/01/27 01:40:07;;;;;;;;;34.50;28.75;;;;;6.88;58.19;98994.34;5129588;27;8871;-77
2023/01/27 01:42:54;;;;;;;;;39.20;27.00;;;;;7.07;57.76;98991.03;5128435;27;8838;-79
2023/01/27 01:45:43;;;;;;;;;32.20;30.00;;;;;7.05;58.25;98991.84;5128237;27;8895;-77
2023/01/27 01:48:16;;;;;;;;;28.60;26.20;;;;;6.97;58.50;98994.41;5076474;27;8943;-76
2023/01/27 01:50:50;;;;;;;;;40.60;31.60;;;;;6.86;58.47;98981.38;5128172;27;8830;-78
2023/01/27 01:53:28;;;;;;;;;33.00;29.00;;;;;6.97;57.92;98989.22;5128388;27;8917;-78
2023/01/27 01:55:58;;;;;;;;;30.40;26.40;;;;;7.06;58.28;98991.88;5129568;27;8859;-78
2023/01/27 01:58:29;;;;;;;;;18.60;17.80;;;;;7.12;57.34;98986.69;5128007;27;8926;-78
2023/01/27 02:00:58;;;;;;;;;31.60;24.80;;;;;7.11;57.36;98985.00;5123521;27;8861;-79
2023/01/27 02:03:29;;;;;;;;;30.20;26.60;;;;;7.14;57.01;98989.31;5107631;28;8837;-76
2023/01/27 02:05:58;;;;;;;;;30.40;21.80;;;;;7.10;57.76;98985.84;5090740;28;9016;-79
2023/01/27 02:08:33;;;;;;;;;37.20;29.20;;;;;7.28;57.26;98982.47;5107325;28;8837;-78
2023/01/27 02:11:02;;;;;;;;;31.80;23.60;;;;;7.30;56.64;98977.28;5090223;28;8857;-78
2023/01/27 02:13:32;;;;;;;;;31.20;26.20;;;;;7.39;57.45;98978.19;5108625;28;9757;-78
2023/01/27 02:16:01;;;;;;;;;29.20;24.40;;;;;7.35;57.26;98975.56;5107511;28;9616;-77
2023/01/27 02:18:31;;;;;;;;;28.00;26.20;;;;;7.35;56.35;98975.56;5108974;28;8853;-79
2023/01/27 02:20:59;;;;;;;;;25.00;22.80;;;;;7.37;56.78;98966.03;5090445;28;8853;-77
2023/01/27 02:23:44;;;;;;;;;22.80;22.20;;;;;7.41;56.64;98960.88;5108447;28;8837;-79
2023/01/27 02:26:18;;;;;;;;;19.60;17.60;;;;;7.19;57.41;98965.13;5108687;28;8845;-78
2023/01/27 02:28:55;;;;;;;;;23.20;20.40;;;;;7.22;56.69;98964.25;5107176;28;8849;-79
2023/01/27 02:31:24;;;;;;;;;27.60;24.20;;;;;7.25;57.17;98961.69;5039377;28;8884;-78
2023/01/27 02:34:00;;;;;;;;;27.00;20.20;;;;;7.16;56.72;98962.50;5108674;28;8995;-77
2023/01/27 02:36:32;;;;;;;;;26.00;23.00;;;;;7.15;57.16;98958.22;5107681;28;8925;-77
2023/01/27 02:39:03;;;;;;;;;30.20;26.20;;;;;7.03;57.11;98948.66;5107353;28;8829;-75
2023/01/27 02:41:37;;;;;;;;;27.60;23.00;;;;;7.15;57.48;98957.34;5107155;28;8883;-81
2023/01/27 02:44:06;;;;;;;;;23.00;20.00;;;;;7.10;57.02;98956.47;5108207;28;8833;-79
2023/01/27 02:46:36;;;;;;;;;20.00;16.40;;;;;6.85;57.56;98952.91;5089993;28;8899;-78
2023/01/27 02:49:05;;;;;;;;;26.40;25.00;;;;;6.93;57.58;98941.69;5124574;27;8897;-76
2023/01/27 02:51:33;;;;;;;;;26.60;23.20;;;;;6.81;58.26;98942.50;5126064;27;8867;-77
2023/01/27 02:54:03;;;;;;;;;22.20;20.20;;;;;6.99;57.88;98936.56;5094198;28;8886;-77
2023/01/27 02:56:33;;;;;;;;;23.00;21.80;;;;;6.92;57.36;98931.31;5111001;28;8863;-77
2023/01/27 02:59:02;;;;;;;;;23.00;21.00;;;;;6.97;57.41;98927.03;5114514;27;9007;-78
2023/01/27 03:01:38;;;;;;;;;22.80;18.60;;;;;6.98;57.65;98921.84;5094437;28;8947;-77
2023/01/27 03:04:10;;;;;;;;;21.60;18.40;;;;;7.07;57.41;98923.63;5112104;28;8869;-80
2023/01/27 03:06:39;;;;;;;;;23.80;21.00;;;;;7.07;57.78;98915.84;5094948;28;8852;-77
2023/01/27 03:09:09;;;;;;;;;27.40;25.20;;;;;7.06;57.27;98911.50;5110939;28;8852;-80
2023/01/27 03:19:58;;;;;;;;;21.40;17.60;;;;;6.94;58.06;98901.09;5018724;28;8870;-80
2023/01/27 03:22:26;;;;;;;;;24.00;24.00;;;;;6.83;58.20;98907.09;5049433;28;8981;-77
2023/01/27 03:24:55;;;;;;;;;20.40;15.20;;;;;6.94;57.87;98901.97;5032319;28;8866;-80
2023/01/27 03:27:25;;;;;;;;;22.60;21.60;;;;;6.96;57.92;98908.03;5049159;28;8866;-78
2023/01/27 03:30:13;;;;;;;;;19.20;17.40;;;;;6.70;58.40;98894.09;5048719;28;8866;-79
2023/01/27 03:32:52;;;;;;;;;27.20;25.20;;;;;6.85;57.97;98886.38;5048412;28;8972;-77
2023/01/27 03:47:10;;;;;;;;;21.40;20.20;;;;;7.11;57.68;98902.03;4988900;28;9044;-79
2023/01/27 03:49:38;;;;;;;;;21.80;18.60;;;;;7.02;57.68;98904.59;4988745;28;9626;-77
2023/01/27 03:52:07;;;;;;;;;14.20;13.00;;;;;7.15;57.21;98908.94;5014786;28;8910;-77
2023/01/27 03:54:36;;;;;;;;;21.00;18.60;;;;;6.89;57.88;98906.25;5018547;28;8869;-79
2023/01/27 03:57:05;;;;;;;;;24.00;22.40;;;;;6.90;57.91;98905.41;5048067;28;8857;-78
2023/01/27 03:59:36;;;;;;;;;25.40;21.60;;;;;6.85;58.47;98907.09;5030959;28;8987;-77
2023/01/27 04:07:39;;;;;;;;;24.60;20.00;;;;;6.70;58.38;98915.69;5054189;28;8937;-78
2023/01/27 04:10:08;;;;;;;;;21.20;19.20;;;;;6.75;58.14;98913.13;5067860;28;10044;-78
2023/01/27 04:12:36;;;;;;;;;18.20;18.00;;;;;6.67;58.39;98907.03;5120738;27;8850;-77
2023/01/27 04:15:08;;;;;;;;;20.40;17.80;;;;;6.59;58.65;98902.66;5130344;27;8888;-77
2023/01/27 04:17:39;;;;;;;;;27.60;24.00;;;;;6.72;58.68;98903.59;5126370;27;8938;-78
2023/01/27 04:20:10;;;;;;;;;55.50;43.00;;;;;6.87;58.54;98907.13;5091915;28;8884;-79
2023/01/27 04:22:38;;;;;;;;;14.80;14.80;;;;;6.73;58.12;98900.16;5042813;28;8856;-78
2023/01/27 04:25:08;;;;;;;;;20.20;16.00;;;;;6.71;58.16;98904.47;5092541;28;8872;-78
2023/01/27 04:27:42;;;;;;;;;18.00;18.00;;;;;6.85;57.95;98901.94;5110712;28;8891;-78
2023/01/27 04:30:13;;;;;;;;;21.20;18.00;;;;;6.76;58.03;98901.88;5110371;28;8968;-79
2023/01/27 04:32:42;;;;;;;;;23.40;21.80;;;;;6.78;58.80;98895.84;5109132;28;8845;-78
2023/01/27 04:35:10;;;;;;;;;23.20;22.40;;;;;6.67;58.80;98897.50;5110648;27;8873;-79
2023/01/27 04:37:40;;;;;;;;;18.60;16.20;;;;;6.64;58.44;98897.53;5110566;28;8871;-77
2023/01/27 04:40:10;;;;;;;;;21.60;19.80;;;;;6.63;58.94;98896.66;5087068;28;8849;-78
2023/01/27 04:42:39;;;;;;;;;22.20;18.40;;;;;6.63;58.30;98907.03;5087264;28;8857;-79
2023/01/27 04:45:09;;;;;;;;;18.40;18.40;;;;;6.57;58.99;98901.78;5053898;28;8863;-79
2023/01/27 04:47:39;;;;;;;;;20.00;18.00;;;;;6.36;59.68;98902.53;5097631;28;8978;-78
2023/01/27 04:50:09;;;;;;;;;20.40;19.80;;;;;6.28;59.74;98898.19;5107580;28;8840;-79
2023/01/27 04:52:38;;;;;;;;;24.40;20.00;;;;;6.19;60.11;98902.44;5107496;28;8851;-78
2023/01/27 04:55:08;;;;;;;;;21.00;21.00;;;;;6.35;59.53;98893.06;5107729;28;8847;-78
2023/01/27 04:57:38;;;;;;;;;23.00;21.60;;;;;6.41;59.72;98893.09;5057829;28;8872;-78
2023/01/27 05:00:07;;;;;;;;;23.00;19.60;;;;;6.56;59.50;98891.41;5107580;28;8847;-77
2023/01/27 05:02:36;;;;;;;;;22.20;19.60;;;;;6.51;59.37;98894.00;5107701;28;8882;-77
2023/01/27 05:05:07;;;;;;;;;36.25;31.75;;;;;6.62;59.16;98892.31;5107430;28;8939;-79
2023/01/27 05:07:36;;;;;;;;;22.20;19.80;;;;;6.38;59.63;98894.78;5107201;28;9046;-78
2023/01/27 05:10:06;;;;;;;;;14.00;14.00;;;;;6.57;59.62;98903.53;5106432;28;8864;-78
2023/01/27 05:12:34;;;;;;;;;26.80;24.00;;;;;6.53;59.28;98902.63;5110429;27;8846;-76
2023/01/27 05:15:04;;;;;;;;;18.40;18.00;;;;;6.50;59.15;98901.75;5110665;27;8850;-78
2023/01/27 05:17:33;;;;;;;;;17.80;17.80;;;;;6.52;59.03;98893.16;5128981;27;8838;-79
2023/01/27 05:20:03;;;;;;;;;23.80;20.80;;;;;6.49;58.95;98895.72;5128863;27;8953;-78
2023/01/27 05:22:33;;;;;;;;;24.20;21.20;;;;;6.55;58.65;98895.75;5129962;27;9559;-77
2023/01/27 05:25:02;;;;;;;;;28.00;21.40;;;;;6.63;58.50;98896.66;5128915;27;8846;-78
2023/01/27 05:27:31;;;;;;;;;46.25;43.75;;;;;6.70;58.96;98894.09;5127057;27;8834;-78
2023/01/27 05:29:59;;;;;;;;;25.00;22.60;;;;;6.75;58.67;98892.41;5091443;28;8856;-79
2023/01/27 05:32:28;;;;;;;;;21.00;18.00;;;;;6.79;58.59;98899.31;5109279;28;8868;-78
2023/01/27 05:34:57;;;;;;;;;23.80;20.80;;;;;6.68;58.60;98893.22;5109681;28;9629;-77
2023/01/27 05:37:26;;;;;;;;;20.60;20.60;;;;;6.80;59.01;98896.72;5107666;28;8833;-79
2023/01/27 05:39:58;;;;;;;;;20.60;15.80;;;;;6.87;58.31;98891.56;5107933;28;8845;-78
2023/01/27 05:42:27;;;;;;;;;16.80;16.00;;;;;6.76;58.62;98897.56;5108997;28;8849;-77
2023/01/27 05:44:55;;;;;;;;;22.60;21.40;;;;;6.72;58.44;98889.78;5127889;27;9993;-76
2023/01/27 05:47:25;;;;;;;;;20.20;19.40;;;;;6.67;58.81;98892.34;5128217;27;8854;-77
2023/01/27 05:49:53;;;;;;;;;27.20;25.20;;;;;6.76;58.68;98889.78;5110132;27;8850;-79
2023/01/27 05:52:22;;;;;;;;;26.80;24.20;;;;;6.82;58.39;98896.72;5109446;27;8850;-78
2023/01/27 05:54:51;;;;;;;;;21.00;20.40;;;;;6.62;58.79;98888.88;5127096;27;8877;-79
2023/01/27 05:57:21;;;;;;;;;23.40;21.00;;;;;6.70;58.53;98894.94;5126800;27;8839;-77
2023/01/27 05:59:50;;;;;;;;;21.80;17.60;;;;;6.76;58.80;98892.38;5127116;27;8827;-78
2023/01/27 06:02:19;;;;;;;;;26.00;26.00;;;;;6.58;58.57;98893.19;5126884;27;8863;-79
2023/01/27 06:04:50;;;;;;;;;17.80;17.80;;;;;6.53;58.71;98892.28;5076565;27;9017;-78
2023/01/27 06:07:19;;;;;;;;;25.00;22.80;;;;;6.58;59.31;98900.94;5109170;27;8855;-78
2023/01/27 06:09:48;;;;;;;;;17.60;17.60;;;;;6.47;58.90;98901.75;5109515;27;8847;-78
2023/01/27 06:12:17;;;;;;;;;26.20;24.00;;;;;6.49;58.84;98900.91;5072569;28;8897;-77
2023/01/27 06:14:47;;;;;;;;;24.00;22.20;;;;;6.59;58.75;98901.81;5106306;28;8837;-77
2023/01/27 06:17:15;;;;;;;;;21.60;17.60;;;;;6.69;58.41;98902.72;5072256;28;9590;-79
2023/01/27 06:19:44;;;;;;;;;29.00;23.20;;;;;6.56;58.76;98906.97;5106442;28;9613;-80
2023/01/27 06:22:13;;;;;;;;;22.20;20.40;;;;;6.59;59.17;98907.84;5105097;28;8984;-78
2023/01/27 06:24:41;;;;;;;;;26.40;23.20;;;;;6.71;58.50;98907.06;5106302;28;8853;-78
2023/01/27 06:27:10;;;;;;;;;26.00;20.00;;;;;6.81;58.77;98908.81;5107303;27;8856;-79
2023/01/27 06:29:39;;;;;;;;;27.00;24.60;;;;;6.76;58.31;98907.91;5108192;28;8841;-78
2023/01/27 06:32:09;;;;;;;;;30.20;28.00;;;;;6.74;58.13;98903.59;5108462;28;8848;-78
2023/01/27 06:34:38;;;;;;;;;24.40;23.20;;;;;6.42;59.08;98912.06;5107080;28;8983;-78
2023/01/27 06:37:07;;;;;;;;;30.40;28.40;;;;;6.51;58.60;98914.72;5073121;28;8841;-78
2023/01/27 06:39:36;;;;;;;;;31.80;28.40;;;;;6.19;59.64;98920.56;5108173;28;8841;-77
2023/01/27 06:42:06;;;;;;;;;33.80;27.40;;;;;6.29;59.47;98918.91;5108204;28;8929;-79
2023/01/27 06:44:35;;;;;;;;;28.00;27.20;;;;;6.41;59.45;98920.72;5072919;28;8845;-78
2023/01/27 06:47:04;;;;;;;;;32.60;31.20;;;;;6.47;59.65;98918.16;5099864;28;8879;-79
2023/01/27 06:49:34;;;;;;;;;26.60;24.40;;;;;6.39;59.24;98917.22;5106923;28;8888;-78
2023/01/27 06:52:03;;;;;;;;;39.00;35.80;;;;;6.60;58.57;98926.88;5106990;28;8852;-78
2023/01/27 06:54:32;;;;;;;;;38.50;30.75;;;;;6.69;58.53;98923.44;5106318;28;8975;-80
2023/01/27 06:57:01;;;;;;;;;33.25;31.00;;;;;6.48;58.85;98919.88;5108254;28;8864;-79
2023/01/27 06:59:29;;;;;;;;;36.75;34.25;;;;;6.54;58.73;98924.22;5089473;28;8984;-79
2023/01/27 07:01:58;;;;;;;;;42.00;36.50;;;;;6.52;58.77;98923.34;5051842;28;9581;-78
2023/01/27 07:04:28;;;;;;;;;37.75;35.50;;;;;6.57;59.22;98930.28;5085427;28;8875;-77
2023/01/27 07:06:58;;;;;;;;;41.25;31.25;;;;;6.53;59.09;98927.69;5084560;28;8835;-79
2023/01/27 07:09:28;;;;;;;;;40.00;34.50;;;;;6.63;58.98;98930.34;5068352;28;8859;-79
2023/01/27 07:12:03;;;;;;;;;39.00;34.75;;;;;6.77;58.20;98934.72;5068408;28;9584;-80
2023/01/27 07:14:31;;;;;;;;;42.50;40.00;;;;;6.89;58.20;98936.50;5068553;28;8851;-78
2023/01/27 07:17:00;;;;;;;;;29.00;29.00;;;;;6.91;58.76;98940.81;5085419;28;8863;-79
2023/01/27 07:19:29;;;;;;;;;47.75;40.25;;;;;6.98;58.04;98940.00;5068436;28;8851;-79
2023/01/27 07:21:59;;;;;;;;;35.25;29.00;;;;;6.98;57.71;98942.59;5051559;28;8984;-78
2023/01/27 07:24:28;;;;;;;;;44.50;34.25;;;;;7.12;57.08;98945.22;5068454;28;8835;-79
2023/01/27 07:26:57;;;;;;;;;36.75;34.00;;;;;7.04;57.72;98944.34;5051124;28;9004;-78
2023/01/27 07:29:26;;;;;;;;;34.75;30.25;;;;;7.05;57.88;98943.50;5084958;28;8915;-79
2023/01/27 07:31:54;;;;;;;;;39.75;36.00;;;;;6.94;57.67;98943.44;5034386;28;8872;-79
2023/01/27 07:34:23;;;;;;;;;30.00;26.00;;;;;7.01;58.43;98936.53;5108803;28;8845;-78
2023/01/27 07:36:52;;;;;;;;;40.50;38.00;;;;;6.77;58.21;98947.69;5109951;28;8837;-78
2023/01/27 07:39:22;;;;;;;;;43.00;39.25;;;;;6.99;57.82;98957.28;5111602;28;8837;-77
2023/01/27 07:41:51;;;;;;;;;37.75;33.75;;;;;7.00;58.05;98950.38;5137404;27;8850;-77
2023/01/27 07:44:21;;;;;;;;;46.50;39.25;;;;;7.02;57.90;98948.66;5113728;27;9630;-78
2023/01/27 07:46:51;;;;;;;;;40.25;32.25;;;;;7.13;57.93;98951.28;5130522;27;8886;-78
2023/01/27 07:49:20;;;;;;;;;31.60;28.20;;;;;7.00;57.60;98952.97;5130297;27;8936;-79
2023/01/27 07:51:48;;;;;;;;;30.60;28.40;;;;;7.00;57.72;98956.41;5112468;27;8831;-78
2023/01/27 07:54:18;;;;;;;;;38.75;32.50;;;;;7.11;57.88;98950.44;5130632;27;8878;-79
2023/01/27 07:56:48;;;;;;;;;39.75;37.25;;;;;7.27;57.95;98954.78;5113275;27;8981;-81
2023/01/27 07:59:17;;;;;;;;;44.25;37.50;;;;;7.32;57.27;98950.47;5130372;27;8885;-78
2023/01/27 08:01:46;;;;;;;;;37.00;32.00;;;;;7.23;56.59;98955.63;5111208;28;8833;-77
2023/01/27 08:04:16;;;;;;;;;38.00;34.25;;;;;7.12;57.18;98955.59;5111068;28;8867;-80
2023/01/27 08:06:44;;;;;;;;;33.00;32.50;;;;;7.09;57.80;98958.19;5109602;28;9637;-79
2023/01/27 08:09:13;;;;;;;;;36.50;31.75;;;;;7.24;57.19;98959.97;5131090;27;8875;-78
2023/01/27 08:11:42;;;;;;;;;42.25;34.75;;;;;7.12;57.07;98963.38;5112987;27;8841;-80
2023/01/27 08:14:12;;;;;;;;;45.00;42.00;;;;;7.07;57.35;98965.09;5061674;27;9554;-79
2023/01/27 08:16:41;;;;;;;;;36.00;35.50;;;;;7.07;57.34;98969.41;5112895;27;8849;-78
2023/01/27 08:19:10;;;;;;;;;39.75;34.75;;;;;6.97;57.50;98961.56;5130645;27;8990;-78
2023/01/27 08:21:39;;;;;;;;;39.75;36.50;;;;;6.97;57.66;98966.75;5128853;27;8851;-78
2023/01/27 08:24:09;;;;;;;;;43.25;36.00;;;;;7.08;57.81;98964.22;5098189;27;8962;-81
2023/01/27 08:26:38;;;;;;;;;41.75;40.50;;;;;6.74;58.57;98958.88;5152225;27;8846;-78
2023/01/27 08:29:07;;;;;;;;;40.50;35.75;;;;;6.96;57.88;98961.59;5151858;27;8850;-78
2023/01/27 08:31:37;;;;;;;;;36.75;35.75;;;;;7.01;57.50;98960.75;5147689;27;9606;-79
2023/01/27 08:34:05;;;;;;;;;38.75;34.50;;;;;6.99;58.23;98961.59;5078687;27;8942;-78
2023/01/27 08:36:35;;;;;;;;;3.50;1.00;;;;;6.94;57.35;98953.81;5112669;27;8872;-77
2023/01/27 08:39:04;;;;;;;;;37.25;37.00;;;;;7.12;57.50;98955.59;5077778;27;8961;-78
2023/01/27 08:41:32;;;;;;;;;49.25;42.50;;;;;6.70;57.85;98954.53;5095943;27;8950;-77
2023/01/27 08:44:01;;;;;;;;;47.00;39.25;;;;;6.10;60.41;98972.25;5131284;27;8857;-79
2023/01/27 08:46:30;;;;;;;;;37.75;35.75;;;;;5.35;62.73;98972.41;5130564;27;8947;-76
2023/01/27 08:49:00;;;;;;;;;39.25;37.50;;;;;5.06;64.05;98980.66;5112627;27;8981;-80
2023/01/27 08:51:29;;;;;;;;;38.50;34.75;;;;;4.48;66.32;98980.75;5130795;27;8849;-77
2023/01/27 08:53:58;;;;;;;;;33.50;32.25;;;;;4.21;67.55;98983.75;5129452;27;8869;-78
2023/01/27 08:56:29;;;;;;;;;42.50;36.25;;;;;3.93;68.18;98984.16;5129332;27;9629;-78
2023/01/27 08:58:58;;;;;;;;;29.25;21.25;;;;;3.63;69.99;98986.25;5131019;27;8865;-77
2023/01/27 09:01:27;;;;;;;;;37.50;35.50;;;;;3.39;70.81;98988.38;5141120;27;8905;-78
2023/01/27 09:03:55;;;;;;;;;39.50;31.75;;;;;2.96;72.64;98992.66;5151464;27;8958;-78
2023/01/27 09:06:26;;;;;;;;;36.25;34.50;;;;;2.91;72.96;98992.53;5097508;27;8883;-80
2023/01/27 09:09:08;;;;;;;;;37.25;34.25;;;;;2.70;74.27;98992.94;5132763;27;9044;-78
2023/01/27 09:11:41;;;;;;;;;37.00;31.75;;;;;2.85;74.37;99002.72;5097348;27;8843;-78
2023/01/27 09:14:11;;;;;;;;;32.75;29.75;;;;;3.11;73.29;98995.53;5150741;27;9561;-77
2023/01/27 09:16:40;;;;;;;;;42.50;39.50;;;;;3.09;72.74;98995.50;5089640;28;8851;-80
2023/01/27 09:19:09;;;;;;;;;40.75;37.50;;;;;2.94;73.56;98997.75;5089929;28;8864;-80
2023/01/27 09:21:39;;;;;;;;;37.75;36.25;;;;;2.90;73.74;98996.81;5106904;28;8855;-79
2023/01/27 09:24:08;;;;;;;;;31.00;27.75;;;;;3.06;73.47;99002.28;5090173;28;8867;-76
2023/01/27 09:26:37;;;;;;;;;40.00;35.75;;;;;2.95;74.60;98996.06;5107255;28;8874;-78
2023/01/27 09:29:05;;;;;;;;;21.00;18.50;;;;;2.66;74.98;99001.44;5107520;28;9799;-79
2023/01/27 09:31:34;;;;;;;;;33.25;30.25;;;;;2.59;75.57;99004.72;5089892;28;8835;-78
2023/01/27 09:34:03;;;;;;;;;33.25;31.25;;;;;2.84;74.40;99012.16;5106893;28;8947;-78
2023/01/27 09:36:37;;;;;;;;;36.50;31.75;;;;;2.85;74.40;99015.59;5106349;28;9044;-78
2023/01/27 09:39:08;;;;;;;;;38.00;32.50;;;;;2.73;75.37;99011.91;5106729;28;8843;-78
2023/01/27 09:42:04;;;;;;;;;41.00;32.75;;;;;2.77;75.45;99005.13;5106164;28;8851;-78
2023/01/27 09:45:09;;;;;;;;;38.25;36.25;;;;;2.99;75.33;98997.88;5090066;28;8847;-78
2023/01/27 09:47:54;;;;;;;;;41.25;30.25;;;;;2.93;74.64;98988.31;5041635;28;8966;-80
2023/01/27 09:50:38;;;;;;;;;36.00;27.50;;;;;3.30;73.42;98986.47;5065489;28;8896;-77
2023/01/27 09:53:25;;;;;;;;;39.75;36.00;;;;;2.91;74.06;98985.69;5065524;28;8958;-78
2023/01/27 09:56:01;;;;;;;;;37.50;33.00;;;;;2.71;75.50;98989.56;5065529;28;8854;-78
2023/01/27 09:58:42;;;;;;;;;32.75;30.75;;;;;2.62;75.90;98991.91;5032511;28;8893;-77
2023/01/27 10:01:22;;;;;;;;;35.50;31.25;;;;;2.59;75.70;98982.44;5049067;28;8989;-79
2023/01/27 10:04:17;;;;;;;;;51.00;46.50;;;;;2.72;76.06;98979.28;5065580;28;8831;-78
2023/01/27 10:07:00;;;;;;;;;44.50;42.50;;;;;2.93;75.36;98976.31;5048473;28;8850;-80
2023/01/27 10:09:46;;;;;;;;;52.00;43.00;;;;;3.24;74.09;98983.78;5065664;28;8862;-78
2023/01/27 10:12:29;;;;;;;;;43.75;39.50;;;;;3.45;72.92;98984.19;5048730;28;8850;-78
2023/01/27 10:15:09;;;;;;;;;33.75;33.75;;;;;3.71;70.89;98986.38;5005338;28;9789;-81
2023/01/27 10:17:46;;;;;;;;;36.75;35.00;;;;;2.89;74.00;98984.81;4989403;28;8846;-80
2023/01/27 10:20:26;;;;;;;;;22.25;13.50;;;;;3.00;74.54;98981.56;5006121;28;8846;-79
2023/01/27 10:23:12;;;;;;;;;38.25;37.75;;;;;2.74;74.86;98976.72;5005489;28;8971;-80
2023/01/27 10:25:53;;;;;;;;;34.50;31.75;;;;;2.31;76.59;98975.81;5022891;28;8851;-77
2023/01/27 10:28:26;;;;;;;;;39.00;32.25;;;;;2.59;76.41;98972.16;5065165;28;8852;-77
2023/01/27 10:31:01;;;;;;;;;36.50;35.50;;;;;2.67;76.39;98964.59;5060414;28;8834;-79
2023/01/27 10:33:44;;;;;;;;;36.50;32.50;;;;;2.49;76.27;98980.47;5085109;28;8854;-78
2023/01/27 10:36:26;;;;;;;;;34.00;30.75;;;;;2.76;76.13;98969.03;5068760;28;8872;-78
2023/01/27 10:39:13;;;;;;;;;30.25;27.50;;;;;2.86;75.17;98958.97;5068531;28;8861;-79
2023/01/27 10:41:53;;;;;;;;;35.00;32.00;;;;;3.28;74.04;98958.09;5085210;28;9485;-78
2023/01/27 10:44:43;;;;;;;;;40.25;33.50;;;;;3.03;75.18;98959.31;5084942;28;8861;-79
2023/01/27 10:47:24;;;;;;;;;37.25;34.00;;;;;2.94;74.76;98964.28;5051577;28;8830;-79
2023/01/27 10:49:57;;;;;;;;;36.25;30.50;;;;;2.58;75.72;98972.09;5052076;28;8884;-79
2023/01/27 10:52:34;;;;;;;;;43.75;33.25;;;;;2.92;76.12;98959.09;5103358;27;8880;-80
2023/01/27 10:55:13;;;;;;;;;33.50;31.25;;;;;2.66;75.93;98953.41;5093726;27;8861;-79
2023/01/27 10:57:49;;;;;;;;;32.25;28.50;;;;;2.66;76.13;98960.25;5095569;27;8845;-78
2023/01/27 11:00:30;;;;;;;;;47.00;36.50;;;;;2.69;76.22;98965.50;5130915;27;8922;-79
2023/01/27 11:03:26;;;;;;;;;36.75;33.00;;;;;2.96;75.30;98960.03;5114170;27;8836;-79
2023/01/27 11:05:59;;;;;;;;;35.75;33.50;;;;;3.19;74.57;98960.47;5149513;27;8863;-79
2023/01/27 11:08:31;;;;;;;;;39.25;32.00;;;;;3.11;74.80;98954.31;5115275;27;8863;-78
2023/01/27 11:13:54;;;;;;;;;27.25;24.50;;;;;3.00;74.39;98958.38;5102072;27;8845;-80
2023/01/27 11:16:28;;;;;;;;;46.50;43.00;;;;;3.03;75.15;98941.28;5096968;27;8945;-79
2023/01/27 11:19:03;;;;;;;;;47.00;36.75;;;;;2.97;74.56;98933.47;5114224;27;9658;-80
2023/01/27 11:21:33;;;;;;;;;40.75;36.50;;;;;2.72;75.57;98925.22;5097029;27;8926;-78
2023/01/27 11:24:16;;;;;;;;;41.00;38.50;;;;;2.52;76.62;98914.50;5132717;27;8813;-79
2023/01/27 11:26:48;;;;;;;;;40.00;32.25;;;;;2.74;76.75;98907.22;5097300;27;8845;-79
2023/01/27 11:29:23;;;;;;;;;41.75;39.50;;;;;2.86;75.87;98922.94;5137239;27;8827;-79
2023/01/27 11:31:58;;;;;;;;;42.00;36.00;;;;;3.61;74.10;98925.16;5134663;27;8855;-78
2023/01/27 11:34:33;;;;;;;;;50.25;45.00;;;;;4.12;72.58;98924.31;5100031;27;8867;-79
2023/01/27 11:37:14;;;;;;;;;51.25;44.25;;;;;4.13;71.09;98912.25;5134356;27;8863;-78
2023/01/27 11:39:43;;;;;;;;;50.00;43.00;;;;;3.76;72.21;98915.09;5152963;27;8931;-80
2023/01/27 11:42:12;;;;;;;;;47.50;41.25;;;;;3.50;72.77;98906.97;5117700;27;8962;-79
2023/01/27 11:44:43;;;;;;;;;40.50;37.00;;;;;3.41;73.95;98917.09;5152951;27;8839;-80
2023/01/27 11:47:23;;;;;;;;;46.75;42.25;;;;;4.09;71.92;98906.19;5117609;27;8836;-80
2023/01/27 11:49:54;;;;;;;;;45.25;39.75;;;;;4.08;70.66;98912.16;5117259;27;8843;-80
2023/01/27 11:52:25;;;;;;;;;50.25;44.25;;;;;4.12;70.27;98921.72;5050392;27;9009;-79
2023/01/27 11:55:01;;;;;;;;;48.75;44.75;;;;;4.47;69.62;98922.19;5134293;27;8858;-78
2023/01/27 11:57:32;;;;;;;;;47.75;43.25;;;;;4.82;68.14;98932.16;5134160;27;8970;-78
2023/01/27 12:00:06;;;;;;;;;40.33;33.33;;;;;5.19;66.87;98932.56;5133948;27;8919;-78
2023/01/27 12:02:48;;;;;;;;;57.75;47.50;;;;;5.64;66.51;98920.94;5133840;27;8846;-81
2023/01/27 12:05:21;;;;;;;;;41.50;38.75;;;;;5.75;65.66;98921.06;5152654;27;8859;-79
2023/01/27 12:07:55;;;;;;;;;53.25;43.00;;;;;5.98;64.76;98921.28;5133453;27;8851;-80
2023/01/27 12:10:28;;;;;;;;;49.25;45.50;;;;;6.21;64.71;98912.81;5108130;28;8843;-80
2023/01/27 12:12:58;;;;;;;;;45.75;40.25;;;;;5.77;64.70;98902.97;5091381;28;8855;-80
2023/01/27 12:15:31;;;;;;;;;52.75;46.25;;;;;6.15;63.96;98900.69;5108099;28;8961;-79
2023/01/27 12:18:08;;;;;;;;;47.50;40.75;;;;;6.23;62.90;98905.91;5108169;28;9068;-80
2023/01/27 12:20:40;;;;;;;;;50.00;45.75;;;;;6.38;63.09;98899.97;5106668;28;8847;-80
2023/01/27 12:23:24;;;;;;;;;61.75;47.50;;;;;6.30;63.32;98909.44;5108110;28;8855;-81
2023/01/27 12:25:55;;;;;;;;;65.75;51.50;;;;;6.24;62.68;98915.44;5057416;28;8945;-82
2023/01/27 12:28:28;;;;;;;;;54.50;45.75;;;;;6.43;62.47;98914.69;5108176;28;8851;-80
2023/01/27 12:31:04;;;;;;;;;57.00;45.75;;;;;6.28;62.02;98909.41;5090953;28;8847;-82
2023/01/27 12:33:37;;;;;;;;;48.50;40.75;;;;;5.46;63.57;98910.44;5067501;28;8946;-82
2023/01/27 12:36:14;;;;;;;;;58.50;49.25;;;;;5.99;63.32;98914.38;5067074;28;8888;-80